sensor_id;sensor_type;location;lat;lon;timestamp;P1;durP1;ratioP1;P2;durP2;ratioP2
17524;SDS011;40431;52.198;9.902;2023-05-10T00:00:35;3.40;;;3.07;;
17524;SDS011;40431;52.198;9.902;2023-05-10T00:03:02;2.87;;;2.67;;
17524;SDS011;40431;52.198;9.902;2023-05-10T00:05:29;2.93;;;2.73;;
17524;SDS011;40431;52.198;9.902;2023-05-10T00:07:58;3.73;;;3.20;;
17524;SDS011;40431;52.198;9.902;2023-05-10T00:10:24;3.70;;;2.50;;
17524;SDS011;40431;52.198;9.902;2023-05-10T00:12:51;4.17;;;3.00;;
17524;SDS011;40431;52.198;9.902;2023-05-10T00:15:17;3.30;;;3.03;;
17524;SDS011;40431;52.198;9.902;2023-05-10T00:17:44;3.47;;;2.83;;
17524;SDS011;40431;52.198;9.902;2023-05-10T00:20:10;4.03;;;2.50;;
17524;SDS011;40431;52.198;9.902;2023-05-10T00:22:37;2.93;;;2.73;;
17524;SDS011;40431;52.198;9.902;2023-05-10T00:25:06;3.50;;;3.20;;
17524;SDS011;40431;52.198;9.902;2023-05-10T00:27:33;3.53;;;3.30;;
17524;SDS011;40431;52.198;9.902;2023-05-10T00:30:00;6.80;;;2.87;;
17524;SDS011;40431;52.198;9.902;2023-05-10T00:32:26;2.80;;;2.70;;
17524;SDS011;40431;52.198;9.902;2023-05-10T00:34:52;4.37;;;3.17;;
17524;SDS011;40431;52.198;9.902;2023-05-10T00:37:19;2.90;;;2.70;;
17524;SDS011;40431;52.198;9.902;2023-05-10T00:39:46;2.90;;;2.60;;
17524;SDS011;40431;52.198;9.902;2023-05-10T00:42:13;6.47;;;2.90;;
17524;SDS011;40431;52.198;9.902;2023-05-10T00:44:40;2.83;;;2.63;;
17524;SDS011;40431;52.198;9.902;2023-05-10T00:47:06;3.33;;;2.90;;
17524;SDS011;40431;52.198;9.902;2023-05-10T00:49:34;3.70;;;3.40;;
17524;SDS011;40431;52.198;9.902;2023-05-10T00:52:00;3.07;;;2.87;;
17524;SDS011;40431;52.198;9.902;2023-05-10T00:54:28;3.00;;;2.80;;
17524;SDS011;40431;52.198;9.902;2023-05-10T00:56:55;3.77;;;3.23;;
17524;SDS011;40431;52.198;9.902;2023-05-10T00:59:23;3.23;;;2.90;;
17524;SDS011;40431;52.198;9.902;2023-05-10T01:01:50;3.63;;;3.17;;
17524;SDS011;40431;52.198;9.902;2023-05-10T01:04:17;3.50;;;2.80;;
17524;SDS011;40431;52.198;9.902;2023-05-10T01:06:45;3.47;;;3.17;;
17524;SDS011;40431;52.198;9.902;2023-05-10T01:09:11;4.37;;;3.53;;
17524;SDS011;40431;52.198;9.902;2023-05-10T01:11:38;4.07;;;3.30;;
17524;SDS011;40431;52.198;9.902;2023-05-10T01:14:05;4.10;;;3.33;;
17524;SDS011;40431;52.198;9.902;2023-05-10T01:16:34;4.00;;;3.60;;
17524;SDS011;40431;52.198;9.902;2023-05-10T01:19:03;4.13;;;3.17;;
17524;SDS011;40431;52.198;9.902;2023-05-10T01:21:32;3.57;;;3.30;;
17524;SDS011;40431;52.198;9.902;2023-05-10T01:33:33;4.17;;;3.80;;
17524;SDS011;40431;52.198;9.902;2023-05-10T01:36:05;4.93;;;3.57;;
17524;SDS011;40431;52.198;9.902;2023-05-10T01:38:40;3.80;;;3.60;;
17524;SDS011;40431;52.198;9.902;2023-05-10T01:41:12;3.90;;;3.50;;
17524;SDS011;40431;52.198;9.902;2023-05-10T01:43:43;4.20;;;3.90;;
17524;SDS011;40431;52.198;9.902;2023-05-10T01:46:20;4.37;;;3.97;;
17524;SDS011;40431;52.198;9.902;2023-05-10T01:48:54;3.53;;;3.23;;
17524;SDS011;40431;52.198;9.902;2023-05-10T01:51:23;3.97;;;3.23;;
17524;SDS011;40431;52.198;9.902;2023-05-10T01:53:54;4.93;;;3.50;;
17524;SDS011;40431;52.198;9.902;2023-05-10T01:56:26;5.80;;;3.47;;
17524;SDS011;40431;52.198;9.902;2023-05-10T01:58:55;4.07;;;3.30;;
17524;SDS011;40431;52.198;9.902;2023-05-10T02:01:23;3.37;;;3.07;;
17524;SDS011;40431;52.198;9.902;2023-05-10T02:03:54;3.90;;;3.60;;
17524;SDS011;40431;52.198;9.902;2023-05-10T02:06:24;3.90;;;3.60;;
17524;SDS011;40431;52.198;9.902;2023-05-10T02:08:52;4.33;;;3.77;;
17524;SDS011;40431;52.198;9.902;2023-05-10T02:11:20;5.10;;;4.17;;
17524;SDS011;40431;52.198;9.902;2023-05-10T02:13:47;3.87;;;3.50;;
17524;SDS011;40431;52.198;9.902;2023-05-10T02:16:16;4.23;;;3.83;;
17524;SDS011;40431;52.198;9.902;2023-05-10T02:18:44;3.67;;;3.37;;
17524;SDS011;40431;52.198;9.902;2023-05-10T02:21:13;4.10;;;3.80;;
17524;SDS011;40431;52.198;9.902;2023-05-10T02:23:41;4.37;;;4.10;;
17524;SDS011;40431;52.198;9.902;2023-05-10T02:26:09;4.30;;;4.00;;
17524;SDS011;40431;52.198;9.902;2023-05-10T02:28:38;5.10;;;4.80;;
17524;SDS011;40431;52.198;9.902;2023-05-10T02:31:06;4.20;;;3.90;;
17524;SDS011;40431;52.198;9.902;2023-05-10T02:33:36;4.53;;;4.23;;
17524;SDS011;40431;52.198;9.902;2023-05-10T02:36:05;4.50;;;4.20;;
17524;SDS011;40431;52.198;9.902;2023-05-10T02:38:35;4.37;;;4.07;;
17524;SDS011;40431;52.198;9.902;2023-05-10T02:41:02;4.60;;;4.20;;
17524;SDS011;40431;52.198;9.902;2023-05-10T02:43:32;4.57;;;4.20;;
17524;SDS011;40431;52.198;9.902;2023-05-10T02:45:59;5.20;;;3.93;;
17524;SDS011;40431;52.198;9.902;2023-05-10T02:48:26;4.67;;;4.07;;
17524;SDS011;40431;52.198;9.902;2023-05-10T02:50:52;4.70;;;4.23;;
17524;SDS011;40431;52.198;9.902;2023-05-10T02:53:22;4.87;;;3.87;;
17524;SDS011;40431;52.198;9.902;2023-05-10T02:55:54;4.23;;;3.87;;
17524;SDS011;40431;52.198;9.902;2023-05-10T02:58:23;6.63;;;3.83;;
17524;SDS011;40431;52.198;9.902;2023-05-10T03:00:50;4.33;;;3.93;;
17524;SDS011;40431;52.198;9.902;2023-05-10T03:03:16;4.40;;;4.00;;
17524;SDS011;40431;52.198;9.902;2023-05-10T03:05:43;4.43;;;4.13;;
17524;SDS011;40431;52.198;9.902;2023-05-10T03:08:09;5.03;;;4.50;;
17524;SDS011;40431;52.198;9.902;2023-05-10T03:10:38;4.60;;;4.20;;
17524;SDS011;40431;52.198;9.902;2023-05-10T03:13:16;5.87;;;4.33;;
17524;SDS011;40431;52.198;9.902;2023-05-10T03:15:52;5.80;;;4.40;;
17524;SDS011;40431;52.198;9.902;2023-05-10T03:18:27;5.70;;;4.67;;
17524;SDS011;40431;52.198;9.902;2023-05-10T03:20:57;5.33;;;4.37;;
17524;SDS011;40431;52.198;9.902;2023-05-10T03:23:27;5.77;;;5.33;;
17524;SDS011;40431;52.198;9.902;2023-05-10T03:26:00;5.10;;;4.60;;
17524;SDS011;40431;52.198;9.902;2023-05-10T03:28:29;5.33;;;4.90;;
17524;SDS011;40431;52.198;9.902;2023-05-10T03:30:57;5.20;;;4.80;;
17524;SDS011;40431;52.198;9.902;2023-05-10T03:33:25;5.10;;;4.70;;
17524;SDS011;40431;52.198;9.902;2023-05-10T03:35:52;5.03;;;4.63;;
17524;SDS011;40431;52.198;9.902;2023-05-10T03:38:18;5.97;;;4.77;;
17524;SDS011;40431;52.198;9.902;2023-05-10T03:40:44;5.87;;;5.40;;
17524;SDS011;40431;52.198;9.902;2023-05-10T03:43:11;5.80;;;5.37;;
17524;SDS011;40431;52.198;9.902;2023-05-10T03:45:38;5.43;;;4.97;;
17524;SDS011;40431;52.198;9.902;2023-05-10T03:48:05;5.83;;;5.33;;
17524;SDS011;40431;52.198;9.902;2023-05-10T03:50:31;6.30;;;5.90;;
17524;SDS011;40431;52.198;9.902;2023-05-10T03:52:58;6.33;;;5.83;;
17524;SDS011;40431;52.198;9.902;2023-05-10T03:55:24;6.07;;;5.63;;
17524;SDS011;40431;52.198;9.902;2023-05-10T03:57:51;6.00;;;5.60;;
17524;SDS011;40431;52.198;9.902;2023-05-10T04:00:19;6.30;;;5.90;;
17524;SDS011;40431;52.198;9.902;2023-05-10T04:02:47;6.20;;;5.70;;
17524;SDS011;40431;52.198;9.902;2023-05-10T04:05:13;6.73;;;6.33;;
17524;SDS011;40431;52.198;9.902;2023-05-10T04:07:40;6.87;;;6.37;;
17524;SDS011;40431;52.198;9.902;2023-05-10T04:10:07;6.43;;;5.97;;
17524;SDS011;40431;52.198;9.902;2023-05-10T04:12:34;6.80;;;6.37;;
17524;SDS011;40431;52.198;9.902;2023-05-10T04:15:00;6.50;;;5.90;;
17524;SDS011;40431;52.198;9.902;2023-05-10T04:17:27;8.97;;;8.23;;
17524;SDS011;40431;52.198;9.902;2023-05-10T04:19:55;7.10;;;6.50;;
17524;SDS011;40431;52.198;9.902;2023-05-10T04:22:21;6.50;;;6.00;;
17524;SDS011;40431;52.198;9.902;2023-05-10T04:24:48;6.70;;;6.10;;
17524;SDS011;40431;52.198;9.902;2023-05-10T04:27:14;7.90;;;6.00;;
17524;SDS011;40431;52.198;9.902;2023-05-10T04:29:41;6.20;;;5.80;;
17524;SDS011;40431;52.198;9.902;2023-05-10T04:32:07;7.13;;;6.50;;
17524;SDS011;40431;52.198;9.902;2023-05-10T04:34:35;5.73;;;5.33;;
17524;SDS011;40431;52.198;9.902;2023-05-10T04:37:02;7.10;;;6.50;;
17524;SDS011;40431;52.198;9.902;2023-05-10T04:39:29;6.83;;;6.43;;
17524;SDS011;40431;52.198;9.902;2023-05-10T04:41:55;10.17;;;6.77;;
17524;SDS011;40431;52.198;9.902;2023-05-10T04:44:21;7.37;;;6.87;;
17524;SDS011;40431;52.198;9.902;2023-05-10T04:46:48;6.87;;;6.47;;
17524;SDS011;40431;52.198;9.902;2023-05-10T04:49:14;8.27;;;7.57;;
17524;SDS011;40431;52.198;9.902;2023-05-10T04:51:41;7.87;;;7.27;;
17524;SDS011;40431;52.198;9.902;2023-05-10T04:54:09;8.20;;;7.60;;
17524;SDS011;40431;52.198;9.902;2023-05-10T04:56:35;8.10;;;7.50;;
17524;SDS011;40431;52.198;9.902;2023-05-10T04:59:02;7.80;;;7.30;;
17524;SDS011;40431;52.198;9.902;2023-05-10T05:01:28;7.77;;;7.20;;
17524;SDS011;40431;52.198;9.902;2023-05-10T05:03:55;8.00;;;7.40;;
17524;SDS011;40431;52.198;9.902;2023-05-10T05:06:21;7.93;;;7.27;;
17524;SDS011;40431;52.198;9.902;2023-05-10T05:08:49;7.47;;;6.97;;
17524;SDS011;40431;52.198;9.902;2023-05-10T05:11:17;7.60;;;7.10;;
17524;SDS011;40431;52.198;9.902;2023-05-10T05:13:44;8.20;;;7.60;;
17524;SDS011;40431;52.198;9.902;2023-05-10T05:16:10;7.13;;;6.27;;
17524;SDS011;40431;52.198;9.902;2023-05-10T05:18:37;5.90;;;5.50;;
17524;SDS011;40431;52.198;9.902;2023-05-10T05:21:03;5.07;;;4.67;;
17524;SDS011;40431;52.198;9.902;2023-05-10T05:23:39;5.60;;;5.03;;
17524;SDS011;40431;52.198;9.902;2023-05-10T05:26:06;5.97;;;5.40;;
17524;SDS011;40431;52.198;9.902;2023-05-10T05:28:34;6.20;;;5.80;;
17524;SDS011;40431;52.198;9.902;2023-05-10T05:31:02;5.70;;;5.10;;
17524;SDS011;40431;52.198;9.902;2023-05-10T05:33:28;5.57;;;5.17;;
17524;SDS011;40431;52.198;9.902;2023-05-10T05:35:54;5.90;;;5.40;;
17524;SDS011;40431;52.198;9.902;2023-05-10T05:38:21;5.93;;;5.43;;
17524;SDS011;40431;52.198;9.902;2023-05-10T05:40:48;6.07;;;5.67;;
17524;SDS011;40431;52.198;9.902;2023-05-10T05:43:15;4.90;;;4.47;;
17524;SDS011;40431;52.198;9.902;2023-05-10T05:45:42;5.40;;;4.90;;
17524;SDS011;40431;52.198;9.902;2023-05-10T05:48:09;6.00;;;5.50;;
17524;SDS011;40431;52.198;9.902;2023-05-10T05:50:35;5.80;;;5.40;;
17524;SDS011;40431;52.198;9.902;2023-05-10T05:53:04;5.93;;;5.53;;
17524;SDS011;40431;52.198;9.902;2023-05-10T05:55:30;6.17;;;5.67;;
17524;SDS011;40431;52.198;9.902;2023-05-10T05:57:57;7.03;;;5.40;;
17524;SDS011;40431;52.198;9.902;2023-05-10T06:00:24;8.70;;;6.37;;
17524;SDS011;40431;52.198;9.902;2023-05-10T06:02:52;6.23;;;5.73;;
17524;SDS011;40431;52.198;9.902;2023-05-10T06:05:18;6.60;;;6.10;;
17524;SDS011;40431;52.198;9.902;2023-05-10T06:07:45;8.70;;;8.10;;
17524;SDS011;40431;52.198;9.902;2023-05-10T06:10:11;11.03;;;10.00;;
17524;SDS011;40431;52.198;9.902;2023-05-10T06:12:38;8.00;;;7.40;;
17524;SDS011;40431;52.198;9.902;2023-05-10T06:15:04;7.33;;;6.73;;
17524;SDS011;40431;52.198;9.902;2023-05-10T06:17:31;7.93;;;6.97;;
17524;SDS011;40431;52.198;9.902;2023-05-10T06:19:59;7.07;;;6.63;;
17524;SDS011;40431;52.198;9.902;2023-05-10T06:22:25;6.50;;;6.00;;
17524;SDS011;40431;52.198;9.902;2023-05-10T06:24:52;6.80;;;6.30;;
17524;SDS011;40431;52.198;9.902;2023-05-10T06:27:18;7.90;;;7.30;;
17524;SDS011;40431;52.198;9.902;2023-05-10T06:29:44;6.87;;;6.40;;
17524;SDS011;40431;52.198;9.902;2023-05-10T06:32:11;7.20;;;6.67;;
17524;SDS011;40431;52.198;9.902;2023-05-10T06:34:37;7.40;;;6.80;;
17524;SDS011;40431;52.198;9.902;2023-05-10T06:37:05;7.83;;;7.23;;
17524;SDS011;40431;52.198;9.902;2023-05-10T06:39:31;7.33;;;6.83;;
17524;SDS011;40431;52.198;9.902;2023-05-10T06:41:58;7.83;;;6.90;;
17524;SDS011;40431;52.198;9.902;2023-05-10T06:44:24;7.07;;;6.60;;
17524;SDS011;40431;52.198;9.902;2023-05-10T06:46:51;6.57;;;6.17;;
17524;SDS011;40431;52.198;9.902;2023-05-10T06:49:18;6.37;;;5.90;;
17524;SDS011;40431;52.198;9.902;2023-05-10T06:51:44;6.50;;;6.03;;
17524;SDS011;40431;52.198;9.902;2023-05-10T06:54:12;6.77;;;6.37;;
17524;SDS011;40431;52.198;9.902;2023-05-10T06:56:38;6.30;;;5.90;;
17524;SDS011;40431;52.198;9.902;2023-05-10T06:59:06;6.80;;;6.30;;
17524;SDS011;40431;52.198;9.902;2023-05-10T07:01:32;6.70;;;6.20;;
17524;SDS011;40431;52.198;9.902;2023-05-10T07:03:59;7.60;;;7.10;;
17524;SDS011;40431;52.198;9.902;2023-05-10T07:06:25;6.57;;;6.13;;
17524;SDS011;40431;52.198;9.902;2023-05-10T07:08:52;6.23;;;5.83;;
17524;SDS011;40431;52.198;9.902;2023-05-10T07:11:20;6.33;;;5.93;;
17524;SDS011;40431;52.198;9.902;2023-05-10T07:13:46;6.00;;;5.70;;
17524;SDS011;40431;52.198;9.902;2023-05-10T07:16:13;6.13;;;5.63;;
17524;SDS011;40431;52.198;9.902;2023-05-10T07:18:39;6.53;;;6.03;;
17524;SDS011;40431;52.198;9.902;2023-05-10T07:21:06;5.90;;;5.60;;
17524;SDS011;40431;52.198;9.902;2023-05-10T07:23:32;6.90;;;6.40;;
17524;SDS011;40431;52.198;9.902;2023-05-10T07:25:58;6.57;;;6.13;;
17524;SDS011;40431;52.198;9.902;2023-05-10T07:28:27;6.33;;;5.93;;
17524;SDS011;40431;52.198;9.902;2023-05-10T07:30:53;5.80;;;5.40;;
17524;SDS011;40431;52.198;9.902;2023-05-10T07:33:19;6.03;;;5.60;;
17524;SDS011;40431;52.198;9.902;2023-05-10T07:35:46;5.43;;;5.07;;
17524;SDS011;40431;52.198;9.902;2023-05-10T07:38:12;5.33;;;5.03;;
17524;SDS011;40431;52.198;9.902;2023-05-10T07:40:39;5.10;;;4.80;;
17524;SDS011;40431;52.198;9.902;2023-05-10T07:43:05;5.10;;;4.70;;
17524;SDS011;40431;52.198;9.902;2023-05-10T07:45:34;4.17;;;3.97;;
17524;SDS011;40431;52.198;9.902;2023-05-10T07:48:00;5.07;;;4.57;;
17524;SDS011;40431;52.198;9.902;2023-05-10T07:50:27;4.47;;;4.17;;
17524;SDS011;40431;52.198;9.902;2023-05-10T07:52:53;4.10;;;3.90;;
17524;SDS011;40431;52.198;9.902;2023-05-10T07:55:20;4.30;;;4.10;;
17524;SDS011;40431;52.198;9.902;2023-05-10T07:57:47;6.13;;;3.47;;
17524;SDS011;40431;52.198;9.902;2023-05-10T08:00:13;3.80;;;3.60;;
17524;SDS011;40431;52.198;9.902;2023-05-10T08:02:44;3.80;;;3.50;;
17524;SDS011;40431;52.198;9.902;2023-05-10T08:05:11;3.80;;;3.60;;
17524;SDS011;40431;52.198;9.902;2023-05-10T08:07:37;3.50;;;3.30;;
17524;SDS011;40431;52.198;9.902;2023-05-10T08:10:04;3.50;;;3.30;;
17524;SDS011;40431;52.198;9.902;2023-05-10T08:12:31;3.47;;;3.17;;
17524;SDS011;40431;52.198;9.902;2023-05-10T08:14:58;3.37;;;3.17;;
17524;SDS011;40431;52.198;9.902;2023-05-10T08:17:24;3.40;;;3.20;;
17524;SDS011;40431;52.198;9.902;2023-05-10T08:19:52;4.00;;;3.70;;
17524;SDS011;40431;52.198;9.902;2023-05-10T08:22:18;2.93;;;2.73;;
17524;SDS011;40431;52.198;9.902;2023-05-10T08:24:45;3.80;;;3.50;;
17524;SDS011;40431;52.198;9.902;2023-05-10T08:27:14;4.03;;;3.70;;
17524;SDS011;40431;52.198;9.902;2023-05-10T08:29:40;3.17;;;3.00;;
17524;SDS011;40431;52.198;9.902;2023-05-10T08:32:07;3.03;;;2.83;;
17524;SDS011;40431;52.198;9.902;2023-05-10T08:34:33;3.90;;;3.53;;
17524;SDS011;40431;52.198;9.902;2023-05-10T08:37:01;3.40;;;3.20;;
17524;SDS011;40431;52.198;9.902;2023-05-10T08:39:27;2.73;;;2.50;;
17524;SDS011;40431;52.198;9.902;2023-05-10T08:41:54;3.03;;;2.73;;
17524;SDS011;40431;52.198;9.902;2023-05-10T08:44:24;2.00;;;1.90;;
17524;SDS011;40431;52.198;9.902;2023-05-10T08:46:51;2.43;;;2.20;;
17524;SDS011;40431;52.198;9.902;2023-05-10T08:49:20;2.10;;;2.00;;
17524;SDS011;40431;52.198;9.902;2023-05-10T08:51:49;1.70;;;1.60;;
17524;SDS011;40431;52.198;9.902;2023-05-10T08:54:19;1.57;;;1.47;;
17524;SDS011;40431;52.198;9.902;2023-05-10T08:56:47;1.70;;;1.60;;
17524;SDS011;40431;52.198;9.902;2023-05-10T08:59:13;1.67;;;1.57;;
17524;SDS011;40431;52.198;9.902;2023-05-10T09:01:40;1.30;;;1.20;;
17524;SDS011;40431;52.198;9.902;2023-05-10T09:04:09;2.33;;;1.50;;
17524;SDS011;40431;52.198;9.902;2023-05-10T09:06:36;1.10;;;1.10;;
17524;SDS011;40431;52.198;9.902;2023-05-10T09:09:05;1.57;;;1.30;;
17524;SDS011;40431;52.198;9.902;2023-05-10T09:11:34;1.30;;;1.23;;
17524;SDS011;40431;52.198;9.902;2023-05-10T09:14:00;1.10;;;1.10;;
17524;SDS011;40431;52.198;9.902;2023-05-10T09:16:27;1.33;;;1.23;;
17524;SDS011;40431;52.198;9.902;2023-05-10T09:18:53;1.37;;;1.27;;
17524;SDS011;40431;52.198;9.902;2023-05-10T09:21:20;1.67;;;1.30;;
17524;SDS011;40431;52.198;9.902;2023-05-10T09:23:46;0.90;;;0.90;;
17524;SDS011;40431;52.198;9.902;2023-05-10T09:26:14;1.07;;;1.07;;
17524;SDS011;40431;52.198;9.902;2023-05-10T09:28:53;0.80;;;0.80;;
17524;SDS011;40431;52.198;9.902;2023-05-10T09:31:21;0.97;;;0.97;;
17524;SDS011;40431;52.198;9.902;2023-05-10T09:33:49;1.07;;;1.00;;
17524;SDS011;40431;52.198;9.902;2023-05-10T09:36:15;1.20;;;1.10;;
17524;SDS011;40431;52.198;9.902;2023-05-10T09:38:45;0.83;;;0.83;;
17524;SDS011;40431;52.198;9.902;2023-05-10T09:41:16;1.67;;;1.17;;
17524;SDS011;40431;52.198;9.902;2023-05-10T09:43:45;1.20;;;1.10;;
17524;SDS011;40431;52.198;9.902;2023-05-10T09:46:12;1.10;;;1.10;;
17524;SDS011;40431;52.198;9.902;2023-05-10T09:48:40;1.13;;;1.13;;
17524;SDS011;40431;52.198;9.902;2023-05-10T09:51:09;2.23;;;1.10;;
17524;SDS011;40431;52.198;9.902;2023-05-10T09:53:36;1.13;;;1.13;;
17524;SDS011;40431;52.198;9.902;2023-05-10T09:56:02;1.40;;;1.30;;
17524;SDS011;40431;52.198;9.902;2023-05-10T09:58:29;1.23;;;1.20;;
17524;SDS011;40431;52.198;9.902;2023-05-10T10:00:55;1.07;;;1.07;;
17524;SDS011;40431;52.198;9.902;2023-05-10T10:03:23;1.40;;;1.30;;
17524;SDS011;40431;52.198;9.902;2023-05-10T10:05:50;1.90;;;1.03;;
17524;SDS011;40431;52.198;9.902;2023-05-10T10:08:21;1.40;;;1.30;;
17524;SDS011;40431;52.198;9.902;2023-05-10T10:10:47;1.20;;;1.20;;
17524;SDS011;40431;52.198;9.902;2023-05-10T10:13:14;1.40;;;1.30;;
17524;SDS011;40431;52.198;9.902;2023-05-10T10:15:42;1.87;;;1.43;;
17524;SDS011;40431;52.198;9.902;2023-05-10T10:18:10;1.60;;;1.50;;
17524;SDS011;40431;52.198;9.902;2023-05-10T10:20:40;1.13;;;1.13;;
17524;SDS011;40431;52.198;9.902;2023-05-10T10:23:07;1.17;;;1.03;;
17524;SDS011;40431;52.198;9.902;2023-05-10T10:25:34;1.83;;;1.20;;
17524;SDS011;40431;52.198;9.902;2023-05-10T10:28:06;1.67;;;1.50;;
17524;SDS011;40431;52.198;9.902;2023-05-10T10:30:42;1.63;;;1.53;;
17524;SDS011;40431;52.198;9.902;2023-05-10T10:33:27;1.20;;;1.20;;
17524;SDS011;40431;52.198;9.902;2023-05-10T10:36:03;2.00;;;1.90;;
17524;SDS011;40431;52.198;9.902;2023-05-10T10:38:38;1.80;;;1.70;;
17524;SDS011;40431;52.198;9.902;2023-05-10T10:41:27;2.10;;;2.00;;
17524;SDS011;40431;52.198;9.902;2023-05-10T10:46:59;2.63;;;2.43;;
17524;SDS011;40431;52.198;9.902;2023-05-10T10:49:27;2.73;;;2.00;;
17524;SDS011;40431;52.198;9.902;2023-05-10T10:54:41;2.50;;;2.30;;
17524;SDS011;40431;52.198;9.902;2023-05-10T10:57:13;2.37;;;2.17;;
17524;SDS011;40431;52.198;9.902;2023-05-10T10:59:43;2.50;;;2.30;;
17524;SDS011;40431;52.198;9.902;2023-05-10T11:02:10;2.60;;;2.37;;
17524;SDS011;40431;52.198;9.902;2023-05-10T11:05:00;2.37;;;2.17;;
17524;SDS011;40431;52.198;9.902;2023-05-10T11:07:54;3.47;;;2.57;;
17524;SDS011;40431;52.198;9.902;2023-05-10T11:10:22;3.10;;;2.80;;
17524;SDS011;40431;52.198;9.902;2023-05-10T11:12:52;3.07;;;2.40;;
17524;SDS011;40431;52.198;9.902;2023-05-10T11:15:20;2.93;;;2.73;;
17524;SDS011;40431;52.198;9.902;2023-05-10T11:17:54;2.93;;;2.63;;
17524;SDS011;40431;52.198;9.902;2023-05-10T11:20:25;3.27;;;2.97;;
17524;SDS011;40431;52.198;9.902;2023-05-10T11:23:10;2.73;;;2.63;;
17524;SDS011;40431;52.198;9.902;2023-05-10T11:25:40;3.50;;;3.17;;
17524;SDS011;40431;52.198;9.902;2023-05-10T11:28:08;3.20;;;3.00;;
17524;SDS011;40431;52.198;9.902;2023-05-10T11:30:35;2.80;;;2.60;;
17524;SDS011;40431;52.198;9.902;2023-05-10T11:33:01;2.97;;;2.77;;
17524;SDS011;40431;52.198;9.902;2023-05-10T11:35:28;2.47;;;2.37;;
17524;SDS011;40431;52.198;9.902;2023-05-10T11:37:54;2.70;;;2.50;;
17524;SDS011;40431;52.198;9.902;2023-05-10T11:40:22;2.60;;;2.40;;
17524;SDS011;40431;52.198;9.902;2023-05-10T11:42:49;2.90;;;2.40;;
17524;SDS011;40431;52.198;9.902;2023-05-10T11:45:23;2.80;;;2.60;;
17524;SDS011;40431;52.198;9.902;2023-05-10T11:47:49;3.43;;;3.03;;
17524;SDS011;40431;52.198;9.902;2023-05-10T11:50:16;3.07;;;2.87;;
17524;SDS011;40431;52.198;9.902;2023-05-10T11:52:43;3.03;;;2.70;;
17524;SDS011;40431;52.198;9.902;2023-05-10T11:55:09;2.70;;;2.50;;
17524;SDS011;40431;52.198;9.902;2023-05-10T11:57:37;2.93;;;2.73;;
17524;SDS011;40431;52.198;9.902;2023-05-10T12:00:06;3.37;;;2.87;;
17524;SDS011;40431;52.198;9.902;2023-05-10T12:02:33;2.57;;;2.30;;
17524;SDS011;40431;52.198;9.902;2023-05-10T12:05:00;2.73;;;2.53;;
17524;SDS011;40431;52.198;9.902;2023-05-10T12:07:30;2.30;;;2.13;;
17524;SDS011;40431;52.198;9.902;2023-05-10T12:10:03;2.73;;;2.53;;
17524;SDS011;40431;52.198;9.902;2023-05-10T12:12:35;5.70;;;2.80;;
17524;SDS011;40431;52.198;9.902;2023-05-10T12:15:05;2.93;;;2.30;;
17524;SDS011;40431;52.198;9.902;2023-05-10T12:17:36;2.70;;;2.50;;
17524;SDS011;40431;52.198;9.902;2023-05-10T12:20:13;3.33;;;2.20;;
17524;SDS011;40431;52.198;9.902;2023-05-10T12:22:40;1.97;;;1.83;;
17524;SDS011;40431;52.198;9.902;2023-05-10T12:25:08;2.57;;;2.27;;
17524;SDS011;40431;52.198;9.902;2023-05-10T12:27:35;3.17;;;2.23;;
17524;SDS011;40431;52.198;9.902;2023-05-10T12:30:04;3.43;;;2.50;;
17524;SDS011;40431;52.198;9.902;2023-05-10T12:32:37;3.90;;;2.57;;
17524;SDS011;40431;52.198;9.902;2023-05-10T12:35:04;4.47;;;2.60;;
17524;SDS011;40431;52.198;9.902;2023-05-10T12:37:32;2.60;;;2.40;;
17524;SDS011;40431;52.198;9.902;2023-05-10T12:40:01;3.17;;;2.87;;
17524;SDS011;40431;52.198;9.902;2023-05-10T12:42:29;3.90;;;3.03;;
17524;SDS011;40431;52.198;9.902;2023-05-10T12:44:57;3.60;;;3.30;;
17524;SDS011;40431;52.198;9.902;2023-05-10T12:47:24;3.10;;;2.80;;
17524;SDS011;40431;52.198;9.902;2023-05-10T12:49:50;3.60;;;3.30;;
17524;SDS011;40431;52.198;9.902;2023-05-10T12:52:17;3.33;;;3.07;;
17524;SDS011;40431;52.198;9.902;2023-05-10T12:54:43;2.73;;;2.53;;
17524;SDS011;40431;52.198;9.902;2023-05-10T12:57:09;2.80;;;2.60;;
17524;SDS011;40431;52.198;9.902;2023-05-10T12:59:36;2.77;;;2.57;;
17524;SDS011;40431;52.198;9.902;2023-05-10T13:02:03;3.90;;;2.70;;
17524;SDS011;40431;52.198;9.902;2023-05-10T13:04:30;2.90;;;2.60;;
17524;SDS011;40431;52.198;9.902;2023-05-10T13:06:56;2.63;;;2.53;;
17524;SDS011;40431;52.198;9.902;2023-05-10T13:09:23;2.83;;;2.63;;
17524;SDS011;40431;52.198;9.902;2023-05-10T13:11:50;2.53;;;2.33;;
17524;SDS011;40431;52.198;9.902;2023-05-10T13:14:18;2.50;;;2.30;;
17524;SDS011;40431;52.198;9.902;2023-05-10T13:16:45;2.60;;;2.40;;
17524;SDS011;40431;52.198;9.902;2023-05-10T13:19:13;2.43;;;2.23;;
17524;SDS011;40431;52.198;9.902;2023-05-10T13:21:40;2.50;;;2.30;;
17524;SDS011;40431;52.198;9.902;2023-05-10T13:24:07;2.77;;;2.50;;
17524;SDS011;40431;52.198;9.902;2023-05-10T13:26:33;1.80;;;1.70;;
17524;SDS011;40431;52.198;9.902;2023-05-10T13:29:01;2.57;;;2.37;;
17524;SDS011;40431;52.198;9.902;2023-05-10T13:31:27;2.60;;;2.30;;
17524;SDS011;40431;52.198;9.902;2023-05-10T13:33:54;1.90;;;1.80;;
17524;SDS011;40431;52.198;9.902;2023-05-10T13:36:21;2.43;;;2.23;;
17524;SDS011;40431;52.198;9.902;2023-05-10T13:38:48;3.03;;;2.30;;
17524;SDS011;40431;52.198;9.902;2023-05-10T13:41:14;2.20;;;2.00;;
17524;SDS011;40431;52.198;9.902;2023-05-10T13:43:40;2.53;;;2.33;;
17524;SDS011;40431;52.198;9.902;2023-05-10T13:46:07;2.70;;;2.50;;
17524;SDS011;40431;52.198;9.902;2023-05-10T13:48:33;2.03;;;1.93;;
17524;SDS011;40431;52.198;9.902;2023-05-10T13:51:01;2.63;;;2.43;;
17524;SDS011;40431;52.198;9.902;2023-05-10T13:53:29;2.33;;;2.13;;
17524;SDS011;40431;52.198;9.902;2023-05-10T13:55:55;2.57;;;2.30;;
17524;SDS011;40431;52.198;9.902;2023-05-10T13:58:25;2.97;;;2.10;;
17524;SDS011;40431;52.198;9.902;2023-05-10T14:00:51;1.90;;;1.70;;
17524;SDS011;40431;52.198;9.902;2023-05-10T14:03:17;1.67;;;1.57;;
17524;SDS011;40431;52.198;9.902;2023-05-10T14:05:44;2.20;;;1.40;;
17524;SDS011;40431;52.198;9.902;2023-05-10T14:08:12;1.70;;;1.60;;
17524;SDS011;40431;52.198;9.902;2023-05-10T14:10:40;1.70;;;1.60;;
17524;SDS011;40431;52.198;9.902;2023-05-10T14:13:07;1.60;;;1.50;;
17524;SDS011;40431;52.198;9.902;2023-05-10T14:15:33;2.13;;;1.93;;
17524;SDS011;40431;52.198;9.902;2023-05-10T14:17:59;1.70;;;1.60;;
17524;SDS011;40431;52.198;9.902;2023-05-10T14:20:26;1.67;;;1.57;;
17524;SDS011;40431;52.198;9.902;2023-05-10T14:22:52;2.40;;;1.47;;
17524;SDS011;40431;52.198;9.902;2023-05-10T14:25:20;2.20;;;1.80;;
17524;SDS011;40431;52.198;9.902;2023-05-10T14:27:48;1.60;;;1.50;;
17524;SDS011;40431;52.198;9.902;2023-05-10T14:30:14;1.90;;;1.70;;
17524;SDS011;40431;52.198;9.902;2023-05-10T14:32:40;1.70;;;1.53;;
17524;SDS011;40431;52.198;9.902;2023-05-10T14:35:07;1.93;;;1.73;;
17524;SDS011;40431;52.198;9.902;2023-05-10T14:37:34;1.90;;;1.80;;
17524;SDS011;40431;52.198;9.902;2023-05-10T14:40:00;2.10;;;1.90;;
17524;SDS011;40431;52.198;9.902;2023-05-10T14:42:29;2.23;;;2.00;;
17524;SDS011;40431;52.198;9.902;2023-05-10T14:44:57;1.93;;;1.77;;
17524;SDS011;40431;52.198;9.902;2023-05-10T14:47:23;2.17;;;1.97;;
17524;SDS011;40431;52.198;9.902;2023-05-10T14:49:50;2.83;;;1.87;;
17524;SDS011;40431;52.198;9.902;2023-05-10T14:52:16;2.33;;;2.23;;
17524;SDS011;40431;52.198;9.902;2023-05-10T14:54:43;1.67;;;1.57;;
17524;SDS011;40431;52.198;9.902;2023-05-10T14:57:09;2.10;;;2.00;;
17524;SDS011;40431;52.198;9.902;2023-05-10T14:59:36;2.07;;;1.97;;
17524;SDS011;40431;52.198;9.902;2023-05-10T15:02:03;2.57;;;2.37;;
17524;SDS011;40431;52.198;9.902;2023-05-10T15:04:30;3.67;;;2.20;;
17524;SDS011;40431;52.198;9.902;2023-05-10T15:06:57;2.73;;;2.40;;